Nearby METAR Reports

 

ENCN - Kristiansand/Kje, Norway
Distance from station: N 17km
Oppdatert: 07/04/2020 22:50
Klart
Klart
 Vind fra varies
Vind: varies 4 km/h
Temperatur: 7°C
Duggpunkt: 1°C
Fuktighet: 66%
Barometer: 1030 hPa
Oversikt: Klart
Visibility: greater than 10 km
2020/04/07 20:50 ENCN 072050Z VRB02KT CAVOK 07/01 Q1030
EKSN - Sindal Airport, Denmark
Distance from station: ØSØ 145km
Oppdatert: 07/04/2020 14:50
NOT Current
Klart
Klart
 Vind fra V
Vind: V 31 km/h
Temperatur: 12°C
Duggpunkt: 3°C
Fuktighet: 54%
Barometer: 1030 hPa
Oversikt: Klart
Visibility: greater than 10 km
2020/04/07 12:50 EKSN 071250Z 28017KT CAVOK 12/03 Q1030
 
EKYT - Alborg, Denmark
Distance from station: SØ 153km
Oppdatert: 07/04/2020 22:50
Klart
Klart
 Vind fra SSV
Vind: SSV 7 km/h
Temperatur: 6°C
Wind Chill: 4°C
Duggpunkt: 3°C
Fuktighet: 81%
Barometer: 1032 hPa
Clouds: Klart
Visibility: 10 km
2020/04/07 20:50 EKYT 072050Z AUTO 21004KT 9999 NCD 06/03 Q1032
ENSN - Skien/Geiterygge, Norway
Distance from station: NØ 153km
Oppdatert: 09/11/2015 09:50
NOT Current
Klart
Klart
 Vind fra SSV
Vind: SSV 19 km/h, Vindkast: 41 km/h
Temperatur: 7°C
Wind Chill: 4°C
Duggpunkt: 3°C
Fuktighet: 76%
Barometer: 1000 hPa
Oversikt: Klart
Visibility: greater than 10 km
2015/11/09 08:50 ENSN 090850Z 20010G22KT 150V240 CAVOK 07/03 Q1000
 
ENZV - Stavanger/Sola(A, Norway
Distance from station: NV 166km
Oppdatert: 07/04/2020 22:50
Klart
Klart
 Vind fra S
Vind: S 15 km/h
Temperatur: 6°C
Wind Chill: 3°C
Duggpunkt: 2°C
Fuktighet: 76%
Barometer: 1028 hPa
Oversikt: Klart
Visibility: greater than 10 km
2020/04/07 20:50 ENZV 072050Z 17008KT CAVOK 06/02 Q1028
ENNO - Notodden, Norway
Distance from station: NNØ 182km
Oppdatert: 06/04/2020 11:50
NOT Current
Nearby showers, Delvis skyet
Nearby showers, Delvis skyet
 Vind fra V
Vind: V 6 km/h
Temperatur: 7°C
Duggpunkt: 2°C
Fuktighet: 71%
Barometer: 1021 hPa
Oversikt: Nearby Showers
Clouds: Delvis skyet
Visibility: 10 km
Cloud details: Delvis skyet 853 m
2020/04/06 09:50 ENNO 060950Z 27003KT 9999 VCSH SCT028 07/02 Q1021
 
ENTO - Torp (civ/Nor-Af, Norway
Distance from station: NØ 183km
Oppdatert: 07/04/2020 22:50
Klart
Klart
 Vind fra V
Vind: V 6 km/h
Temperatur: 8°C
Duggpunkt: -2°C
Fuktighet: 50%
Barometer: 1028 hPa
Oversikt: Klart
Visibility: greater than 10 km
2020/04/07 20:50 ENTO 072050Z 27003KT CAVOK 08/M02 Q1028 NOSIG
EKKA - Karup (dan-Afb), Denmark
Distance from station: SSØ 209km
Oppdatert: 07/04/2020 22:50
Klart
Klart
 Vind fra S
Vind: S 4 km/h
Temperatur: 5°C
Duggpunkt: -1°C
Fuktighet: 66%
Barometer: 1032 hPa
Clouds: Klart
Visibility: 10 km
2020/04/07 20:50 EKKA 072050Z AUTO 17002KT 9999 NCD 05/M01 Q1032
 
ENHD - Haugesund/Karmoy, Norway
Distance from station: NV 216km
Oppdatert: 07/04/2020 22:50
Klart
Klart
 Vind fra SSØ
Vind: SSØ 26 km/h
Temperatur: 7°C
Wind Chill: 3°C
Duggpunkt: 4°C
Fuktighet: 81%
Barometer: 1027 hPa
Clouds: Klart
Visibility: 10 km
2020/04/07 20:50 ENHD 072050Z AUTO 16014KT 9999 NCD 07/04 Q1027
ENRY - Rygge (nor-Afb), Norway
Distance from station: NØ 216km
Oppdatert: 07/04/2020 22:20
Klart
Klart
 Vind fra S
Vind: S 9 km/h
Temperatur: 8°C
Wind Chill: 6°C
Duggpunkt: -2°C
Fuktighet: 50%
Barometer: 1028 hPa
Oversikt: Klart
Visibility: greater than 10 km
2020/04/07 20:20 ENRY 072020Z 18005KT CAVOK 08/M02 Q1028
 
ESGP - Goteborg/Save (a, Sweden
Distance from station: Ø 230km
Oppdatert: 02/01/2017 11:20
NOT Current
Klart
Klart
 Vind fra calm
Vind: Stille
Temperatur: -2°C
Duggpunkt: -4°C
Fuktighet: 86%
Barometer: 1012 hPa
Clouds: Klart
Visibility: 10 km
2017/01/02 10:20 ESGP 021020Z AUTO 00000KT 9999 NCD M02/M04 Q1012
EKVJ - Stauning Airport, Denmark
Distance from station: S 233km
Oppdatert: 07/04/2020 14:50
NOT Current
Klart
Klart
 Vind fra V
Vind: V 17 km/h
Temperatur: 12°C
Duggpunkt: 7°C
Fuktighet: 72%
Barometer: 1032 hPa
Oversikt: Klart
Visibility: greater than 10 km
2020/04/07 12:50 EKVJ 071250Z 26009KT CAVOK 12/07 Q1032
 
ENSO - Stord/Soerstokke, Norway
Distance from station: NV 246km
Oppdatert: 07/04/2020 14:50
NOT Current
Few Clouds
Few Clouds
 Vind fra S
Vind: S 17 km/h
Temperatur: 11°C
Duggpunkt: 3°C
Fuktighet: 58%
Barometer: 1029 hPa
Clouds: Few Clouds
Visibility: 10 km
Cloud details: Few Clouds 914 m
2020/04/07 12:50 ENSO 071250Z 19009KT 140V260 9999 FEW030 11/03 Q1029
EKAH - Tirstrup (civ/Mi, Denmark
Distance from station: SØ 252km
Oppdatert: 07/04/2020 22:50
Klart
Klart
 Vind fra SSØ
Vind: SSØ 2 km/h
Temperatur: 5°C
Duggpunkt: 0°C
Fuktighet: 70%
Barometer: 1033 hPa
Clouds: Klart
Visibility: 10 km
2020/04/07 20:50 EKAH 072050Z AUTO 16001KT 9999NDV NCD 05/00 Q1033
 
ESGT - Trollhattan (pvt, Sweden
Distance from station: Ø 255km
Oppdatert: 07/04/2020 22:50
Klart
Klart
 Vind fra SSV
Vind: SSV 11 km/h
Temperatur: 4°C
Wind Chill: 1°C
Duggpunkt: 2°C
Fuktighet: 87%
Barometer: 1030 hPa
Clouds: Klart
Visibility: 10 km
2020/04/07 20:50 ESGT 072050Z AUTO 21006KT 9999 NCD 04/02 Q1030
ESGG - Goteborg/Landvet, Sweden
Distance from station: Ø 257km
Oppdatert: 07/04/2020 22:50
Klart
Klart
 Vind fra SSV
Vind: SSV 9 km/h
Temperatur: 3°C
Wind Chill: 0°C
Duggpunkt: 0°C
Fuktighet: 81%
Barometer: 1031 hPa
Oversikt: Klart
Visibility: greater than 10 km
2020/04/07 20:50 ESGG 072050Z 20005KT CAVOK 03/M00 Q1031 R21/09//95
 
EKBI - Billund Airport, Denmark
Distance from station: SSØ 269km
Oppdatert: 07/04/2020 22:50
Klart
Klart
 Vind fra calm
Vind: Stille
Temperatur: 4°C
Duggpunkt: 0°C
Fuktighet: 75%
Barometer: 1032 hPa
Clouds: Klart
Visibility: 10 km
2020/04/07 20:50 EKBI 072050Z AUTO 00000KT 9999 NCD 04/00 Q1032
EKHN - Horns Rev B Heli, Denmark
Distance from station: S 274km
Oppdatert: 09/08/2016 14:20
NOT Current
Few Clouds
Few Clouds
 Vind fra VNV
Vind: VNV 50 km/h, Vindkast: 72 km/h
Temperatur: 14°C
Duggpunkt: 10°C
Fuktighet: 77%
Barometer: 1018 hPa
Clouds: Few Clouds
Visibility: 10 km
Cloud details: Few Clouds 1158 m
Few Clouds 2438 m
2016/08/09 12:20 EKHN 091220Z AUTO 29027G39KT 270V340 9999NDV FEW038/// FEW080/// 14/10 Q1018
 
ESIB - Satenas (swe-Afb, Sweden
Distance from station: Ø 277km
Oppdatert: 07/04/2020 22:50
Klart
Klart
 Vind fra SSV
Vind: SSV 9 km/h
Temperatur: 4°C
Wind Chill: 2°C
Duggpunkt: 2°C
Fuktighet: 87%
Barometer: 1030 hPa
Clouds: Klart
Visibility: 10 km
2020/04/07 20:50 ESIB 072050Z AUTO 21005KT 9999 NCD 04/02 Q1030
EKHR - Horns Rev B Heli, Denmark
Distance from station: S 282km
Oppdatert: 04/10/2016 06:20
NOT Current
Klart
Klart
 Vind fra Ø
Vind: Ø 4 km/h
Temperatur: 11°C
Duggpunkt: -49°C
Fuktighet: 0%
Barometer: 1038 hPa
Clouds: Klart
Visibility: 10 km
2016/10/04 04:20 EKHR 040420Z AUTO 08002KT 9999NDV NCD 11/M49 Q1038